KBDN

Bend Municipal Airport

Bend, Oregon, USA
METAR KBDN 211335Z AUTO 00000KT 10SM CLR 09/M01 A3012 RMK AO2
Observed Flight Rules
Jul-21 @ 13:35 UTC (16 minutes ago) Visual Flight Rules
Visibility Clouds
10 miles
  • Clear skies
Temperatures Readings
Current 9°C / 48°F
Dewpoint -1°C / 30°F
Humidity 50%
Altimeter 30.12" Hg
Pressure 1020 hPa
Elevation 1055
METAR KBDN 211335Z AUTO 00000KT 10SM CLR 09/M01 A3012 RMK AO2
Observed Flight Rules
Jul-21 @ 13:35 UTC
(16 minutes ago)
VFR
Clouds
  • Clear skies
Temperature Dewpoint
9°C / 48°F -1°C / 30°F
Humidity Altimeter Pressure
50% 30.12" Hg 1020 hPa